sensor_id;sensor_type;location;lat;lon;timestamp;P1;durP1;ratioP1;P2;durP2;ratioP2
25905;SDS011;13713;52.552;13.204;2023-05-20T00:00:03;7.93;;;5.68;;
25905;SDS011;13713;52.552;13.204;2023-05-20T00:02:30;8.48;;;5.57;;
25905;SDS011;13713;52.552;13.204;2023-05-20T00:04:56;8.32;;;5.68;;
25905;SDS011;13713;52.552;13.204;2023-05-20T00:07:22;8.40;;;5.45;;
25905;SDS011;13713;52.552;13.204;2023-05-20T00:09:47;6.65;;;5.35;;
25905;SDS011;13713;52.552;13.204;2023-05-20T00:12:13;6.70;;;5.38;;
25905;SDS011;13713;52.552;13.204;2023-05-20T00:14:38;7.93;;;5.65;;
25905;SDS011;13713;52.552;13.204;2023-05-20T00:17:04;7.22;;;5.60;;
25905;SDS011;13713;52.552;13.204;2023-05-20T00:19:30;7.85;;;5.47;;
25905;SDS011;13713;52.552;13.204;2023-05-20T00:21:56;6.75;;;5.45;;
25905;SDS011;13713;52.552;13.204;2023-05-20T00:24:22;7.47;;;5.72;;
25905;SDS011;13713;52.552;13.204;2023-05-20T00:26:48;7.65;;;5.93;;
25905;SDS011;13713;52.552;13.204;2023-05-20T00:29:14;7.70;;;5.47;;
25905;SDS011;13713;52.552;13.204;2023-05-20T00:31:40;6.97;;;5.50;;
25905;SDS011;13713;52.552;13.204;2023-05-20T00:34:06;9.05;;;5.80;;
25905;SDS011;13713;52.552;13.204;2023-05-20T00:36:32;7.68;;;5.68;;
25905;SDS011;13713;52.552;13.204;2023-05-20T00:38:59;7.03;;;5.30;;
25905;SDS011;13713;52.552;13.204;2023-05-20T00:41:25;7.45;;;5.50;;
25905;SDS011;13713;52.552;13.204;2023-05-20T00:43:54;9.25;;;6.00;;
25905;SDS011;13713;52.552;13.204;2023-05-20T00:46:20;7.15;;;5.57;;
25905;SDS011;13713;52.552;13.204;2023-05-20T00:48:47;7.43;;;5.60;;
25905;SDS011;13713;52.552;13.204;2023-05-20T00:51:14;5.75;;;4.97;;
25905;SDS011;13713;52.552;13.204;2023-05-20T00:53:40;7.78;;;5.68;;
25905;SDS011;13713;52.552;13.204;2023-05-20T00:56:07;10.00;;;5.93;;
25905;SDS011;13713;52.552;13.204;2023-05-20T00:58:33;7.88;;;5.93;;
25905;SDS011;13713;52.552;13.204;2023-05-20T01:01:03;7.28;;;5.28;;
25905;SDS011;13713;52.552;13.204;2023-05-20T01:03:30;6.95;;;5.32;;
25905;SDS011;13713;52.552;13.204;2023-05-20T01:05:56;7.65;;;5.63;;
25905;SDS011;13713;52.552;13.204;2023-05-20T01:08:22;7.45;;;5.45;;
25905;SDS011;13713;52.552;13.204;2023-05-20T01:10:50;7.95;;;5.93;;
25905;SDS011;13713;52.552;13.204;2023-05-20T01:13:31;7.75;;;5.50;;
25905;SDS011;13713;52.552;13.204;2023-05-20T01:16:02;7.50;;;5.75;;
25905;SDS011;13713;52.552;13.204;2023-05-20T01:18:29;8.48;;;5.97;;
25905;SDS011;13713;52.552;13.204;2023-05-20T01:20:57;6.25;;;5.25;;
25905;SDS011;13713;52.552;13.204;2023-05-20T01:23:38;7.28;;;5.53;;
25905;SDS011;13713;52.552;13.204;2023-05-20T01:26:07;6.85;;;5.70;;
25905;SDS011;13713;52.552;13.204;2023-05-20T01:28:36;7.15;;;5.40;;
25905;SDS011;13713;52.552;13.204;2023-05-20T01:31:05;8.35;;;5.68;;
25905;SDS011;13713;52.552;13.204;2023-05-20T01:33:38;8.52;;;5.93;;
25905;SDS011;13713;52.552;13.204;2023-05-20T01:36:05;8.38;;;5.70;;
25905;SDS011;13713;52.552;13.204;2023-05-20T01:38:32;7.80;;;5.75;;
25905;SDS011;13713;52.552;13.204;2023-05-20T01:41:00;9.15;;;5.60;;
25905;SDS011;13713;52.552;13.204;2023-05-20T01:43:29;8.38;;;5.50;;
25905;SDS011;13713;52.552;13.204;2023-05-20T01:45:55;7.63;;;5.30;;
25905;SDS011;13713;52.552;13.204;2023-05-20T01:48:21;7.72;;;6.00;;
25905;SDS011;13713;52.552;13.204;2023-05-20T01:50:46;7.80;;;5.68;;
25905;SDS011;13713;52.552;13.204;2023-05-20T01:53:12;7.57;;;5.65;;
25905;SDS011;13713;52.552;13.204;2023-05-20T01:55:38;8.63;;;5.78;;
25905;SDS011;13713;52.552;13.204;2023-05-20T01:58:03;8.52;;;6.05;;
25905;SDS011;13713;52.552;13.204;2023-05-20T02:00:34;7.68;;;5.53;;
25905;SDS011;13713;52.552;13.204;2023-05-20T02:03:00;9.90;;;6.43;;
25905;SDS011;13713;52.552;13.204;2023-05-20T02:05:27;7.78;;;5.82;;
25905;SDS011;13713;52.552;13.204;2023-05-20T02:07:53;8.50;;;6.07;;
25905;SDS011;13713;52.552;13.204;2023-05-20T02:10:19;8.02;;;5.90;;
25905;SDS011;13713;52.552;13.204;2023-05-20T02:12:45;8.05;;;5.45;;
25905;SDS011;13713;52.552;13.204;2023-05-20T02:15:12;7.38;;;5.75;;
25905;SDS011;13713;52.552;13.204;2023-05-20T02:17:39;7.72;;;5.93;;
25905;SDS011;13713;52.552;13.204;2023-05-20T02:20:07;9.23;;;6.28;;
25905;SDS011;13713;52.552;13.204;2023-05-20T02:22:34;6.90;;;5.53;;
25905;SDS011;13713;52.552;13.204;2023-05-20T02:25:01;9.18;;;6.13;;
25905;SDS011;13713;52.552;13.204;2023-05-20T02:27:27;7.88;;;5.93;;
25905;SDS011;13713;52.552;13.204;2023-05-20T02:29:53;7.63;;;5.47;;
25905;SDS011;13713;52.552;13.204;2023-05-20T02:32:19;8.00;;;5.82;;
25905;SDS011;13713;52.552;13.204;2023-05-20T02:34:45;6.85;;;5.60;;
25905;SDS011;13713;52.552;13.204;2023-05-20T02:37:11;7.63;;;5.80;;
25905;SDS011;13713;52.552;13.204;2023-05-20T02:39:36;7.25;;;5.78;;
25905;SDS011;13713;52.552;13.204;2023-05-20T02:42:02;8.60;;;5.88;;
25905;SDS011;13713;52.552;13.204;2023-05-20T02:44:28;8.93;;;6.45;;
25905;SDS011;13713;52.552;13.204;2023-05-20T02:46:55;8.48;;;6.10;;
25905;SDS011;13713;52.552;13.204;2023-05-20T02:49:21;8.27;;;5.93;;
25905;SDS011;13713;52.552;13.204;2023-05-20T02:51:47;8.98;;;6.32;;
25905;SDS011;13713;52.552;13.204;2023-05-20T02:54:13;8.20;;;6.20;;
25905;SDS011;13713;52.552;13.204;2023-05-20T02:56:39;8.15;;;6.18;;
25905;SDS011;13713;52.552;13.204;2023-05-20T02:59:05;8.45;;;6.07;;
25905;SDS011;13713;52.552;13.204;2023-05-20T03:01:31;9.15;;;5.88;;
25905;SDS011;13713;52.552;13.204;2023-05-20T03:04:01;9.48;;;5.88;;
25905;SDS011;13713;52.552;13.204;2023-05-20T03:06:27;7.88;;;5.70;;
25905;SDS011;13713;52.552;13.204;2023-05-20T03:08:54;8.30;;;6.10;;
25905;SDS011;13713;52.552;13.204;2023-05-20T03:11:20;7.45;;;5.53;;
25905;SDS011;13713;52.552;13.204;2023-05-20T03:13:47;8.30;;;6.10;;
25905;SDS011;13713;52.552;13.204;2023-05-20T03:16:15;8.02;;;5.85;;
25905;SDS011;13713;52.552;13.204;2023-05-20T03:18:42;7.35;;;5.57;;
25905;SDS011;13713;52.552;13.204;2023-05-20T03:21:08;7.75;;;6.07;;
25905;SDS011;13713;52.552;13.204;2023-05-20T03:23:34;7.43;;;5.72;;
25905;SDS011;13713;52.552;13.204;2023-05-20T03:26:00;7.38;;;5.70;;
25905;SDS011;13713;52.552;13.204;2023-05-20T03:28:27;8.60;;;6.07;;
25905;SDS011;13713;52.552;13.204;2023-05-20T03:30:53;8.98;;;6.28;;
25905;SDS011;13713;52.552;13.204;2023-05-20T03:33:19;8.38;;;6.10;;
25905;SDS011;13713;52.552;13.204;2023-05-20T03:35:46;7.05;;;5.70;;
25905;SDS011;13713;52.552;13.204;2023-05-20T03:38:13;8.30;;;6.00;;
25905;SDS011;13713;52.552;13.204;2023-05-20T03:40:39;7.32;;;5.78;;
25905;SDS011;13713;52.552;13.204;2023-05-20T03:43:05;7.55;;;5.97;;
25905;SDS011;13713;52.552;13.204;2023-05-20T03:45:31;6.65;;;5.72;;
25905;SDS011;13713;52.552;13.204;2023-05-20T03:48:02;7.82;;;5.90;;
25905;SDS011;13713;52.552;13.204;2023-05-20T03:50:30;8.60;;;6.15;;
25905;SDS011;13713;52.552;13.204;2023-05-20T03:52:56;8.77;;;6.03;;
25905;SDS011;13713;52.552;13.204;2023-05-20T03:55:22;8.32;;;6.20;;
25905;SDS011;13713;52.552;13.204;2023-05-20T03:57:49;8.07;;;5.95;;
25905;SDS011;13713;52.552;13.204;2023-05-20T04:00:14;8.45;;;6.28;;
25905;SDS011;13713;52.552;13.204;2023-05-20T04:02:41;7.93;;;6.25;;
25905;SDS011;13713;52.552;13.204;2023-05-20T04:05:08;8.77;;;6.60;;
25905;SDS011;13713;52.552;13.204;2023-05-20T04:07:35;8.73;;;6.10;;
25905;SDS011;13713;52.552;13.204;2023-05-20T04:10:02;8.88;;;6.55;;
25905;SDS011;13713;52.552;13.204;2023-05-20T04:12:28;7.20;;;6.03;;
25905;SDS011;13713;52.552;13.204;2023-05-20T04:14:56;7.55;;;5.82;;
25905;SDS011;13713;52.552;13.204;2023-05-20T04:17:26;8.18;;;6.20;;
25905;SDS011;13713;52.552;13.204;2023-05-20T04:19:54;9.63;;;5.97;;
25905;SDS011;13713;52.552;13.204;2023-05-20T04:22:21;8.35;;;6.20;;
25905;SDS011;13713;52.552;13.204;2023-05-20T04:24:47;7.63;;;5.50;;
25905;SDS011;13713;52.552;13.204;2023-05-20T04:27:13;8.38;;;6.18;;
25905;SDS011;13713;52.552;13.204;2023-05-20T04:29:40;8.45;;;6.13;;
25905;SDS011;13713;52.552;13.204;2023-05-20T04:32:18;9.00;;;6.63;;
25905;SDS011;13713;52.552;13.204;2023-05-20T04:34:44;8.10;;;6.03;;
25905;SDS011;13713;52.552;13.204;2023-05-20T04:37:12;9.93;;;5.97;;
25905;SDS011;13713;52.552;13.204;2023-05-20T04:39:38;8.35;;;5.95;;
25905;SDS011;13713;52.552;13.204;2023-05-20T04:42:06;8.15;;;6.03;;
25905;SDS011;13713;52.552;13.204;2023-05-20T04:44:32;7.90;;;6.18;;
25905;SDS011;13713;52.552;13.204;2023-05-20T04:46:58;9.93;;;6.32;;
25905;SDS011;13713;52.552;13.204;2023-05-20T04:49:24;9.35;;;6.88;;
25905;SDS011;13713;52.552;13.204;2023-05-20T04:51:51;8.82;;;6.57;;
25905;SDS011;13713;52.552;13.204;2023-05-20T04:54:17;8.88;;;5.88;;
25905;SDS011;13713;52.552;13.204;2023-05-20T04:56:44;7.70;;;6.20;;
25905;SDS011;13713;52.552;13.204;2023-05-20T04:59:11;8.05;;;6.05;;
25905;SDS011;13713;52.552;13.204;2023-05-20T05:01:38;8.55;;;6.05;;
25905;SDS011;13713;52.552;13.204;2023-05-20T05:04:04;8.23;;;6.60;;
25905;SDS011;13713;52.552;13.204;2023-05-20T05:06:30;9.18;;;6.38;;
25905;SDS011;13713;52.552;13.204;2023-05-20T05:08:57;10.35;;;6.18;;
25905;SDS011;13713;52.552;13.204;2023-05-20T05:11:23;8.25;;;6.20;;
25905;SDS011;13713;52.552;13.204;2023-05-20T05:13:48;9.98;;;6.63;;
25905;SDS011;13713;52.552;13.204;2023-05-20T05:16:14;10.13;;;6.22;;
25905;SDS011;13713;52.552;13.204;2023-05-20T05:18:41;9.20;;;6.47;;
25905;SDS011;13713;52.552;13.204;2023-05-20T05:21:06;8.07;;;6.03;;
25905;SDS011;13713;52.552;13.204;2023-05-20T05:23:34;9.60;;;6.55;;
25905;SDS011;13713;52.552;13.204;2023-05-20T05:25:59;9.43;;;6.55;;
25905;SDS011;13713;52.552;13.204;2023-05-20T05:28:26;10.90;;;7.30;;
25905;SDS011;13713;52.552;13.204;2023-05-20T05:30:52;11.25;;;7.50;;
25905;SDS011;13713;52.552;13.204;2023-05-20T05:33:19;8.75;;;6.22;;
25905;SDS011;13713;52.552;13.204;2023-05-20T05:35:45;10.18;;;6.53;;
25905;SDS011;13713;52.552;13.204;2023-05-20T05:38:11;8.52;;;6.18;;
25905;SDS011;13713;52.552;13.204;2023-05-20T05:40:36;9.48;;;6.60;;
25905;SDS011;13713;52.552;13.204;2023-05-20T05:43:02;8.88;;;6.55;;
25905;SDS011;13713;52.552;13.204;2023-05-20T05:45:28;8.60;;;6.50;;
25905;SDS011;13713;52.552;13.204;2023-05-20T05:47:54;8.93;;;6.25;;
25905;SDS011;13713;52.552;13.204;2023-05-20T05:50:20;10.80;;;7.18;;
25905;SDS011;13713;52.552;13.204;2023-05-20T05:52:46;8.70;;;6.57;;
25905;SDS011;13713;52.552;13.204;2023-05-20T05:55:13;8.77;;;6.57;;
25905;SDS011;13713;52.552;13.204;2023-05-20T05:57:40;9.48;;;6.50;;
25905;SDS011;13713;52.552;13.204;2023-05-20T06:00:06;9.90;;;6.60;;
25905;SDS011;13713;52.552;13.204;2023-05-20T06:02:43;10.13;;;6.95;;
25905;SDS011;13713;52.552;13.204;2023-05-20T06:05:10;9.57;;;7.30;;
25905;SDS011;13713;52.552;13.204;2023-05-20T06:07:36;10.45;;;7.05;;
25905;SDS011;13713;52.552;13.204;2023-05-20T06:10:02;9.82;;;6.90;;
25905;SDS011;13713;52.552;13.204;2023-05-20T06:12:28;12.30;;;7.43;;
25905;SDS011;13713;52.552;13.204;2023-05-20T06:14:53;10.43;;;6.95;;
25905;SDS011;13713;52.552;13.204;2023-05-20T06:17:19;9.88;;;7.03;;
25905;SDS011;13713;52.552;13.204;2023-05-20T06:19:45;12.95;;;7.28;;
25905;SDS011;13713;52.552;13.204;2023-05-20T06:22:11;11.10;;;7.28;;
25905;SDS011;13713;52.552;13.204;2023-05-20T06:24:37;10.68;;;7.53;;
25905;SDS011;13713;52.552;13.204;2023-05-20T06:27:02;9.95;;;7.00;;
25905;SDS011;13713;52.552;13.204;2023-05-20T06:29:28;10.70;;;6.85;;
25905;SDS011;13713;52.552;13.204;2023-05-20T06:31:54;9.88;;;6.72;;
25905;SDS011;13713;52.552;13.204;2023-05-20T06:34:20;10.55;;;7.07;;
25905;SDS011;13713;52.552;13.204;2023-05-20T06:36:45;11.68;;;7.60;;
25905;SDS011;13713;52.552;13.204;2023-05-20T06:39:11;9.98;;;7.55;;
25905;SDS011;13713;52.552;13.204;2023-05-20T06:41:38;12.73;;;7.22;;
25905;SDS011;13713;52.552;13.204;2023-05-20T06:44:08;10.15;;;7.10;;
25905;SDS011;13713;52.552;13.204;2023-05-20T06:46:57;11.48;;;7.85;;
25905;SDS011;13713;52.552;13.204;2023-05-20T06:49:22;10.57;;;6.95;;
25905;SDS011;13713;52.552;13.204;2023-05-20T06:51:49;10.85;;;6.88;;
25905;SDS011;13713;52.552;13.204;2023-05-20T06:54:15;10.90;;;8.00;;
25905;SDS011;13713;52.552;13.204;2023-05-20T06:56:42;10.90;;;7.53;;
25905;SDS011;13713;52.552;13.204;2023-05-20T06:59:08;10.98;;;7.68;;
25905;SDS011;13713;52.552;13.204;2023-05-20T07:01:35;11.55;;;7.45;;
25905;SDS011;13713;52.552;13.204;2023-05-20T07:04:02;11.23;;;8.52;;
25905;SDS011;13713;52.552;13.204;2023-05-20T07:06:28;10.65;;;7.40;;
25905;SDS011;13713;52.552;13.204;2023-05-20T07:08:55;10.27;;;7.22;;
25905;SDS011;13713;52.552;13.204;2023-05-20T07:11:21;11.40;;;7.55;;
25905;SDS011;13713;52.552;13.204;2023-05-20T07:13:47;11.18;;;7.70;;
25905;SDS011;13713;52.552;13.204;2023-05-20T07:16:13;11.25;;;7.68;;
25905;SDS011;13713;52.552;13.204;2023-05-20T07:18:43;12.52;;;8.13;;
25905;SDS011;13713;52.552;13.204;2023-05-20T07:21:08;11.98;;;8.20;;
25905;SDS011;13713;52.552;13.204;2023-05-20T07:23:52;9.82;;;7.43;;
25905;SDS011;13713;52.552;13.204;2023-05-20T07:26:18;10.98;;;7.63;;
25905;SDS011;13713;52.552;13.204;2023-05-20T07:28:44;11.43;;;8.13;;
25905;SDS011;13713;52.552;13.204;2023-05-20T07:31:11;10.52;;;7.88;;
25905;SDS011;13713;52.552;13.204;2023-05-20T07:33:41;13.13;;;8.15;;
25905;SDS011;13713;52.552;13.204;2023-05-20T07:36:07;10.65;;;7.93;;
25905;SDS011;13713;52.552;13.204;2023-05-20T07:38:33;11.82;;;7.75;;
25905;SDS011;13713;52.552;13.204;2023-05-20T07:41:03;14.27;;;8.25;;
25905;SDS011;13713;52.552;13.204;2023-05-20T07:43:30;12.48;;;8.25;;
25905;SDS011;13713;52.552;13.204;2023-05-20T07:45:56;11.98;;;7.88;;
25905;SDS011;13713;52.552;13.204;2023-05-20T07:48:22;13.00;;;8.98;;
25905;SDS011;13713;52.552;13.204;2023-05-20T07:50:48;11.13;;;7.72;;
25905;SDS011;13713;52.552;13.204;2023-05-20T07:53:15;11.95;;;8.13;;
25905;SDS011;13713;52.552;13.204;2023-05-20T07:55:42;12.57;;;8.65;;
25905;SDS011;13713;52.552;13.204;2023-05-20T07:58:08;12.00;;;7.97;;
25905;SDS011;13713;52.552;13.204;2023-05-20T08:00:34;12.70;;;8.63;;
25905;SDS011;13713;52.552;13.204;2023-05-20T08:03:03;11.55;;;8.65;;
25905;SDS011;13713;52.552;13.204;2023-05-20T08:05:43;12.85;;;8.45;;
25905;SDS011;13713;52.552;13.204;2023-05-20T08:08:09;13.18;;;8.05;;
25905;SDS011;13713;52.552;13.204;2023-05-20T08:10:46;12.65;;;8.30;;
25905;SDS011;13713;52.552;13.204;2023-05-20T08:13:11;13.65;;;8.93;;
25905;SDS011;13713;52.552;13.204;2023-05-20T08:15:37;12.13;;;8.88;;
25905;SDS011;13713;52.552;13.204;2023-05-20T08:18:03;13.75;;;8.60;;
25905;SDS011;13713;52.552;13.204;2023-05-20T08:20:29;12.13;;;8.45;;
25905;SDS011;13713;52.552;13.204;2023-05-20T08:22:55;13.18;;;8.15;;
25905;SDS011;13713;52.552;13.204;2023-05-20T08:25:22;11.95;;;9.02;;
25905;SDS011;13713;52.552;13.204;2023-05-20T08:27:49;10.23;;;7.80;;
25905;SDS011;13713;52.552;13.204;2023-05-20T08:30:16;12.77;;;8.77;;
25905;SDS011;13713;52.552;13.204;2023-05-20T08:32:41;12.77;;;8.57;;
25905;SDS011;13713;52.552;13.204;2023-05-20T08:35:07;11.85;;;8.23;;
25905;SDS011;13713;52.552;13.204;2023-05-20T08:37:34;13.68;;;9.32;;
25905;SDS011;13713;52.552;13.204;2023-05-20T08:39:59;11.25;;;8.43;;
25905;SDS011;13713;52.552;13.204;2023-05-20T08:42:25;12.45;;;8.63;;
25905;SDS011;13713;52.552;13.204;2023-05-20T08:44:53;12.55;;;8.80;;
25905;SDS011;13713;52.552;13.204;2023-05-20T08:47:22;13.55;;;9.32;;
25905;SDS011;13713;52.552;13.204;2023-05-20T08:49:47;12.13;;;8.45;;
25905;SDS011;13713;52.552;13.204;2023-05-20T08:52:13;14.57;;;9.30;;
25905;SDS011;13713;52.552;13.204;2023-05-20T08:54:43;14.43;;;9.25;;
25905;SDS011;13713;52.552;13.204;2023-05-20T08:57:10;11.55;;;8.82;;
25905;SDS011;13713;52.552;13.204;2023-05-20T08:59:39;13.20;;;8.88;;
25905;SDS011;13713;52.552;13.204;2023-05-20T09:02:09;13.18;;;9.38;;
25905;SDS011;13713;52.552;13.204;2023-05-20T09:04:35;12.88;;;9.27;;
25905;SDS011;13713;52.552;13.204;2023-05-20T09:07:01;14.32;;;8.90;;
25905;SDS011;13713;52.552;13.204;2023-05-20T09:09:28;12.85;;;9.05;;
25905;SDS011;13713;52.552;13.204;2023-05-20T09:11:54;13.52;;;9.10;;
25905;SDS011;13713;52.552;13.204;2023-05-20T09:14:20;12.65;;;9.13;;
25905;SDS011;13713;52.552;13.204;2023-05-20T09:16:46;14.48;;;10.00;;
25905;SDS011;13713;52.552;13.204;2023-05-20T09:19:13;13.27;;;9.23;;
25905;SDS011;13713;52.552;13.204;2023-05-20T09:21:39;13.20;;;9.57;;
25905;SDS011;13713;52.552;13.204;2023-05-20T09:24:06;15.07;;;9.98;;
25905;SDS011;13713;52.552;13.204;2023-05-20T09:26:31;16.90;;;10.23;;
25905;SDS011;13713;52.552;13.204;2023-05-20T09:28:58;12.98;;;9.25;;
25905;SDS011;13713;52.552;13.204;2023-05-20T09:31:27;14.43;;;9.65;;
25905;SDS011;13713;52.552;13.204;2023-05-20T09:33:57;16.85;;;10.30;;
25905;SDS011;13713;52.552;13.204;2023-05-20T09:36:24;16.85;;;10.65;;
25905;SDS011;13713;52.552;13.204;2023-05-20T09:38:53;14.07;;;9.88;;
25905;SDS011;13713;52.552;13.204;2023-05-20T09:41:33;13.38;;;10.20;;
25905;SDS011;13713;52.552;13.204;2023-05-20T09:44:03;14.60;;;10.32;;
25905;SDS011;13713;52.552;13.204;2023-05-20T09:46:31;13.77;;;10.18;;
25905;SDS011;13713;52.552;13.204;2023-05-20T09:48:58;13.48;;;9.60;;
25905;SDS011;13713;52.552;13.204;2023-05-20T09:51:25;14.52;;;9.63;;
25905;SDS011;13713;52.552;13.204;2023-05-20T09:53:53;14.15;;;10.57;;
25905;SDS011;13713;52.552;13.204;2023-05-20T09:56:21;15.68;;;9.95;;
25905;SDS011;13713;52.552;13.204;2023-05-20T09:58:49;14.55;;;10.23;;
25905;SDS011;13713;52.552;13.204;2023-05-20T10:01:17;13.02;;;9.60;;
25905;SDS011;13713;52.552;13.204;2023-05-20T10:03:42;15.13;;;10.35;;
25905;SDS011;13713;52.552;13.204;2023-05-20T10:08:57;16.75;;;10.70;;
25905;SDS011;13713;52.552;13.204;2023-05-20T10:11:48;14.40;;;9.88;;
25905;SDS011;13713;52.552;13.204;2023-05-20T10:17:47;13.35;;;10.52;;
25905;SDS011;13713;52.552;13.204;2023-05-20T10:20:08;15.48;;;10.68;;
25905;SDS011;13713;52.552;13.204;2023-05-20T10:22:36;14.82;;;10.52;;
25905;SDS011;13713;52.552;13.204;2023-05-20T10:25:04;16.10;;;11.07;;
25905;SDS011;13713;52.552;13.204;2023-05-20T10:30:32;14.48;;;10.90;;
25905;SDS011;13713;52.552;13.204;2023-05-20T10:33:02;14.50;;;10.80;;
25905;SDS011;13713;52.552;13.204;2023-05-20T10:35:29;14.85;;;11.38;;
25905;SDS011;13713;52.552;13.204;2023-05-20T10:38:06;16.58;;;11.43;;
25905;SDS011;13713;52.552;13.204;2023-05-20T10:40:35;14.88;;;10.52;;
25905;SDS011;13713;52.552;13.204;2023-05-20T10:43:15;16.40;;;11.45;;
25905;SDS011;13713;52.552;13.204;2023-05-20T10:45:49;16.55;;;11.38;;
25905;SDS011;13713;52.552;13.204;2023-05-20T10:48:23;15.55;;;11.43;;
25905;SDS011;13713;52.552;13.204;2023-05-20T10:50:57;16.50;;;11.73;;
25905;SDS011;13713;52.552;13.204;2023-05-20T10:53:27;17.07;;;11.93;;
25905;SDS011;13713;52.552;13.204;2023-05-20T10:55:53;18.63;;;11.95;;
25905;SDS011;13713;52.552;13.204;2023-05-20T10:58:22;16.50;;;12.35;;
25905;SDS011;13713;52.552;13.204;2023-05-20T11:00:52;16.60;;;12.32;;
25905;SDS011;13713;52.552;13.204;2023-05-20T11:03:22;14.50;;;11.52;;
25905;SDS011;13713;52.552;13.204;2023-05-20T11:05:49;17.75;;;12.07;;
25905;SDS011;13713;52.552;13.204;2023-05-20T11:08:15;16.80;;;12.82;;
25905;SDS011;13713;52.552;13.204;2023-05-20T11:10:41;17.42;;;11.45;;
25905;SDS011;13713;52.552;13.204;2023-05-20T11:13:10;17.60;;;12.18;;
25905;SDS011;13713;52.552;13.204;2023-05-20T11:15:38;18.27;;;13.02;;
25905;SDS011;13713;52.552;13.204;2023-05-20T11:18:03;17.25;;;12.70;;
25905;SDS011;13713;52.552;13.204;2023-05-20T11:20:29;15.90;;;12.00;;
25905;SDS011;13713;52.552;13.204;2023-05-20T11:22:59;17.77;;;12.43;;
25905;SDS011;13713;52.552;13.204;2023-05-20T11:25:26;16.63;;;12.68;;
25905;SDS011;13713;52.552;13.204;2023-05-20T11:27:52;21.75;;;14.85;;
25905;SDS011;13713;52.552;13.204;2023-05-20T11:30:18;23.95;;;15.85;;
25905;SDS011;13713;52.552;13.204;2023-05-20T11:33:00;26.50;;;16.73;;
25905;SDS011;13713;52.552;13.204;2023-05-20T11:35:29;25.15;;;16.50;;
25905;SDS011;13713;52.552;13.204;2023-05-20T11:37:56;30.23;;;18.60;;
25905;SDS011;13713;52.552;13.204;2023-05-20T11:40:30;27.55;;;16.88;;
25905;SDS011;13713;52.552;13.204;2023-05-20T11:42:57;30.25;;;19.50;;
25905;SDS011;13713;52.552;13.204;2023-05-20T11:45:24;31.73;;;19.25;;
25905;SDS011;13713;52.552;13.204;2023-05-20T11:48:01;28.38;;;19.23;;
25905;SDS011;13713;52.552;13.204;2023-05-20T11:50:32;29.48;;;17.05;;
25905;SDS011;13713;52.552;13.204;2023-05-20T11:53:09;25.55;;;14.98;;
25905;SDS011;13713;52.552;13.204;2023-05-20T11:58:24;23.42;;;14.48;;
25905;SDS011;13713;52.552;13.204;2023-05-20T12:00:50;22.98;;;15.65;;
25905;SDS011;13713;52.552;13.204;2023-05-20T12:03:17;24.23;;;14.80;;
25905;SDS011;13713;52.552;13.204;2023-05-20T12:05:43;22.90;;;14.63;;
25905;SDS011;13713;52.552;13.204;2023-05-20T12:08:09;21.55;;;14.70;;
25905;SDS011;13713;52.552;13.204;2023-05-20T12:10:35;24.73;;;15.40;;
25905;SDS011;13713;52.552;13.204;2023-05-20T12:13:04;20.27;;;14.82;;
25905;SDS011;13713;52.552;13.204;2023-05-20T12:15:36;22.60;;;15.02;;
25905;SDS011;13713;52.552;13.204;2023-05-20T12:18:02;23.13;;;15.18;;
25905;SDS011;13713;52.552;13.204;2023-05-20T12:20:28;24.98;;;15.82;;
25905;SDS011;13713;52.552;13.204;2023-05-20T12:22:55;23.02;;;16.02;;
25905;SDS011;13713;52.552;13.204;2023-05-20T12:25:21;24.50;;;16.30;;
25905;SDS011;13713;52.552;13.204;2023-05-20T12:27:47;23.02;;;15.40;;
25905;SDS011;13713;52.552;13.204;2023-05-20T12:30:18;26.27;;;16.65;;
25905;SDS011;13713;52.552;13.204;2023-05-20T12:32:45;22.75;;;15.50;;
25905;SDS011;13713;52.552;13.204;2023-05-20T12:35:11;22.02;;;15.68;;
25905;SDS011;13713;52.552;13.204;2023-05-20T12:37:38;24.95;;;17.15;;
25905;SDS011;13713;52.552;13.204;2023-05-20T12:40:04;27.13;;;16.80;;
25905;SDS011;13713;52.552;13.204;2023-05-20T12:42:40;23.60;;;16.27;;
25905;SDS011;13713;52.552;13.204;2023-05-20T12:45:06;26.17;;;17.23;;
25905;SDS011;13713;52.552;13.204;2023-05-20T12:47:33;25.95;;;16.05;;
25905;SDS011;13713;52.552;13.204;2023-05-20T12:49:59;29.05;;;17.35;;
25905;SDS011;13713;52.552;13.204;2023-05-20T12:52:25;24.23;;;16.20;;
25905;SDS011;13713;52.552;13.204;2023-05-20T12:54:54;26.15;;;16.80;;
25905;SDS011;13713;52.552;13.204;2023-05-20T12:57:21;27.30;;;17.30;;
25905;SDS011;13713;52.552;13.204;2023-05-20T12:59:47;26.70;;;16.88;;
25905;SDS011;13713;52.552;13.204;2023-05-20T13:02:13;24.33;;;16.52;;
25905;SDS011;13713;52.552;13.204;2023-05-20T13:04:39;24.67;;;16.63;;
25905;SDS011;13713;52.552;13.204;2023-05-20T13:07:05;27.38;;;17.65;;
25905;SDS011;13713;52.552;13.204;2023-05-20T13:09:30;27.85;;;17.98;;
25905;SDS011;13713;52.552;13.204;2023-05-20T13:11:57;26.58;;;17.35;;
25905;SDS011;13713;52.552;13.204;2023-05-20T13:14:23;28.23;;;17.90;;
25905;SDS011;13713;52.552;13.204;2023-05-20T13:16:50;26.02;;;16.88;;
25905;SDS011;13713;52.552;13.204;2023-05-20T13:19:22;27.17;;;17.55;;
25905;SDS011;13713;52.552;13.204;2023-05-20T13:21:48;26.40;;;17.80;;
25905;SDS011;13713;52.552;13.204;2023-05-20T13:24:15;28.27;;;18.95;;
25905;SDS011;13713;52.552;13.204;2023-05-20T13:26:41;28.73;;;17.95;;
25905;SDS011;13713;52.552;13.204;2023-05-20T13:29:07;26.45;;;17.40;;
25905;SDS011;13713;52.552;13.204;2023-05-20T13:31:34;26.67;;;17.63;;
25905;SDS011;13713;52.552;13.204;2023-05-20T13:34:01;27.65;;;18.52;;
25905;SDS011;13713;52.552;13.204;2023-05-20T13:36:27;24.13;;;17.45;;
25905;SDS011;13713;52.552;13.204;2023-05-20T13:38:53;25.85;;;17.98;;
25905;SDS011;13713;52.552;13.204;2023-05-20T13:41:19;27.27;;;18.50;;
25905;SDS011;13713;52.552;13.204;2023-05-20T13:43:44;28.30;;;19.00;;
25905;SDS011;13713;52.552;13.204;2023-05-20T13:46:10;26.75;;;18.75;;
25905;SDS011;13713;52.552;13.204;2023-05-20T13:48:36;28.10;;;18.27;;
25905;SDS011;13713;52.552;13.204;2023-05-20T13:51:02;25.83;;;17.42;;
25905;SDS011;13713;52.552;13.204;2023-05-20T13:53:27;27.30;;;17.88;;
25905;SDS011;13713;52.552;13.204;2023-05-20T13:55:53;28.33;;;18.38;;
25905;SDS011;13713;52.552;13.204;2023-05-20T13:58:19;26.33;;;17.98;;
25905;SDS011;13713;52.552;13.204;2023-05-20T14:00:44;29.42;;;18.65;;
25905;SDS011;13713;52.552;13.204;2023-05-20T14:03:10;28.60;;;18.50;;
25905;SDS011;13713;52.552;13.204;2023-05-20T14:05:36;26.60;;;18.00;;
25905;SDS011;13713;52.552;13.204;2023-05-20T14:08:02;30.38;;;18.15;;
25905;SDS011;13713;52.552;13.204;2023-05-20T14:10:28;27.42;;;18.35;;
25905;SDS011;13713;52.552;13.204;2023-05-20T14:12:56;27.65;;;18.48;;
25905;SDS011;13713;52.552;13.204;2023-05-20T14:15:22;28.08;;;18.70;;
25905;SDS011;13713;52.552;13.204;2023-05-20T14:17:48;27.23;;;17.67;;
25905;SDS011;13713;52.552;13.204;2023-05-20T14:20:15;28.48;;;17.70;;
25905;SDS011;13713;52.552;13.204;2023-05-20T14:22:40;28.20;;;19.38;;
25905;SDS011;13713;52.552;13.204;2023-05-20T14:25:06;28.73;;;18.85;;
25905;SDS011;13713;52.552;13.204;2023-05-20T14:27:33;26.38;;;18.48;;
25905;SDS011;13713;52.552;13.204;2023-05-20T14:29:59;28.15;;;19.00;;
25905;SDS011;13713;52.552;13.204;2023-05-20T14:32:24;29.33;;;18.77;;
25905;SDS011;13713;52.552;13.204;2023-05-20T14:34:50;24.90;;;18.02;;